createdAt,value
2024-03-24T00:00:28.962Z,3.11
2024-03-24T00:01:28.890Z,3.11
2024-03-24T00:02:28.912Z,3.11
2024-03-24T00:03:28.882Z,3.11
2024-03-24T00:04:28.858Z,3.13
2024-03-24T00:05:28.877Z,3.14
2024-03-24T00:06:28.825Z,3.13
2024-03-24T00:07:28.834Z,3.14
2024-03-24T00:08:28.809Z,3.13
2024-03-24T00:09:28.821Z,3.13
2024-03-24T00:10:28.862Z,3.13
2024-03-24T00:11:28.832Z,3.11
2024-03-24T00:12:28.753Z,3.11
2024-03-24T00:13:28.773Z,3.13
2024-03-24T00:14:28.744Z,3.13
2024-03-24T00:15:28.736Z,3.13
2024-03-24T00:16:28.709Z,3.13
2024-03-24T00:17:28.767Z,3.13
2024-03-24T00:18:28.717Z,3.14
2024-03-24T00:19:28.681Z,3.14
2024-03-24T00:20:28.636Z,3.14
2024-03-24T00:21:28.648Z,3.14
2024-03-24T00:22:28.615Z,3.14
2024-03-24T00:23:28.625Z,3.14
2024-03-24T00:24:28.592Z,3.14
2024-03-24T00:25:28.605Z,3.14
2024-03-24T00:26:28.604Z,3.14
2024-03-24T00:27:28.558Z,3.14
2024-03-24T00:28:28.543Z,3.13
2024-03-24T00:29:28.549Z,3.13
2024-03-24T00:30:28.549Z,3.08
2024-03-24T00:31:28.522Z,3.10
2024-03-24T00:32:28.526Z,3.06
2024-03-24T00:33:28.525Z,3.05
2024-03-24T00:34:28.499Z,3.06
2024-03-24T00:35:28.494Z,3.06
2024-03-24T00:36:28.454Z,3.05
2024-03-24T00:37:28.442Z,3.03
2024-03-24T00:38:28.593Z,3.00
2024-03-24T00:39:28.436Z,2.99
2024-03-24T00:40:28.398Z,2.99
2024-03-24T00:41:28.466Z,2.99
2024-03-24T00:42:28.372Z,2.99
2024-03-24T00:43:28.358Z,2.97
2024-03-24T00:44:28.352Z,2.97
2024-03-24T00:45:28.341Z,2.97
2024-03-24T00:46:28.370Z,2.96
2024-03-24T00:47:28.355Z,2.95
2024-03-24T00:48:28.301Z,2.95
2024-03-24T00:49:28.286Z,2.92
2024-03-24T00:50:28.278Z,2.92
2024-03-24T00:51:28.260Z,2.92
2024-03-24T00:52:28.255Z,2.92
2024-03-24T00:53:28.275Z,2.90
2024-03-24T00:54:28.214Z,2.90
2024-03-24T00:55:28.235Z,2.90
2024-03-24T00:56:28.191Z,2.90
2024-03-24T00:57:28.201Z,2.89
2024-03-24T00:58:28.188Z,2.90
2024-03-24T00:59:28.170Z,2.92
2024-03-24T01:00:28.214Z,2.90
2024-03-24T01:01:28.170Z,2.92
2024-03-24T01:02:28.105Z,2.89
2024-03-24T01:03:28.116Z,2.90
2024-03-24T01:04:28.082Z,2.89
2024-03-24T01:05:28.132Z,2.93
2024-03-24T01:06:28.077Z,2.95
2024-03-24T01:07:28.095Z,2.96
2024-03-24T01:08:28.049Z,2.96
2024-03-24T01:09:28.040Z,2.96
2024-03-24T01:10:28.058Z,2.99
2024-03-24T01:11:28.026Z,3.00
2024-03-24T01:12:28.014Z,3.02
2024-03-24T01:13:27.998Z,3.02
2024-03-24T01:14:27.955Z,3.03
2024-03-24T01:15:27.979Z,3.05
2024-03-24T01:16:27.950Z,3.05
2024-03-24T01:17:27.968Z,3.06
2024-03-24T01:18:27.934Z,3.08
2024-03-24T01:19:30.794Z,3.11
2024-03-24T01:20:27.881Z,3.11
2024-03-24T01:21:27.888Z,3.10
2024-03-24T01:22:27.860Z,3.11
2024-03-24T01:23:27.885Z,3.11
2024-03-24T01:24:27.836Z,3.11
2024-03-24T01:25:27.830Z,3.11
2024-03-24T01:26:27.809Z,3.10
2024-03-24T01:27:27.812Z,3.10
2024-03-24T01:28:27.804Z,3.08
2024-03-24T01:29:27.790Z,3.08
2024-03-24T01:30:27.771Z,3.06
2024-03-24T01:31:27.768Z,3.02
2024-03-24T01:32:27.766Z,3.03
2024-03-24T01:33:27.737Z,2.99
2024-03-24T01:34:27.746Z,2.97
2024-03-24T01:35:27.733Z,2.93
2024-03-24T01:36:27.679Z,2.92
2024-03-24T01:37:27.705Z,2.89
2024-03-24T01:38:27.675Z,2.87
2024-03-24T01:39:27.665Z,2.84
2024-03-24T01:40:27.643Z,2.82
2024-03-24T01:41:27.644Z,2.81
2024-03-24T01:42:27.599Z,2.79
2024-03-24T01:43:27.593Z,2.78
2024-03-24T01:44:27.576Z,2.77
2024-03-24T01:45:27.596Z,2.74
2024-03-24T01:46:27.553Z,2.72
2024-03-24T01:47:27.593Z,2.69
2024-03-24T01:48:27.570Z,2.67
2024-03-24T01:49:27.536Z,2.67
2024-03-24T01:50:27.544Z,2.69
2024-03-24T01:51:27.510Z,2.64
2024-03-24T01:52:27.496Z,2.63
2024-03-24T01:53:27.498Z,2.64
2024-03-24T01:54:27.476Z,2.61
2024-03-24T01:55:27.474Z,2.60
2024-03-24T01:56:27.450Z,2.59
2024-03-24T01:57:27.477Z,2.59
2024-03-24T01:58:27.417Z,2.57
2024-03-24T01:59:27.411Z,2.57
2024-03-24T02:00:27.399Z,2.53
2024-03-24T02:01:27.375Z,2.54
2024-03-24T02:02:27.366Z,2.53
2024-03-24T02:03:27.358Z,2.53
2024-03-24T02:04:27.360Z,2.52
2024-03-24T02:05:27.363Z,2.49
2024-03-24T02:06:30.483Z,2.46
2024-03-24T02:07:27.404Z,2.48
2024-03-24T02:08:27.278Z,2.46
2024-03-24T02:09:27.282Z,2.46
2024-03-24T02:10:27.273Z,2.45
2024-03-24T02:11:27.294Z,2.43
2024-03-24T02:12:27.237Z,2.42
2024-03-24T02:13:27.253Z,2.42
2024-03-24T02:14:27.234Z,2.45
2024-03-24T02:15:27.239Z,2.43
2024-03-24T02:16:27.200Z,2.42
2024-03-24T02:17:27.219Z,2.39
2024-03-24T02:18:27.158Z,2.39
2024-03-24T02:19:27.151Z,2.39
2024-03-24T02:20:27.154Z,2.38
2024-03-24T02:21:27.136Z,2.35
2024-03-24T02:22:27.117Z,2.36
2024-03-24T02:23:27.160Z,2.35
2024-03-24T02:24:27.103Z,2.35
2024-03-24T02:25:27.067Z,2.31
2024-03-24T02:26:27.087Z,2.31
2024-03-24T02:27:27.099Z,2.31
2024-03-24T02:28:27.041Z,2.30
2024-03-24T02:29:27.054Z,2.30
2024-03-24T02:30:27.032Z,2.31
2024-03-24T02:31:27.032Z,2.31
2024-03-24T02:32:27.018Z,2.28
2024-03-24T02:33:26.965Z,2.30
2024-03-24T02:34:27.006Z,2.28
2024-03-24T02:35:26.944Z,2.28
2024-03-24T02:36:26.927Z,2.27
2024-03-24T02:37:26.957Z,2.27
2024-03-24T02:38:26.911Z,2.27
2024-03-24T02:39:26.912Z,2.23
2024-03-24T02:40:26.883Z,2.23
2024-03-24T02:41:26.883Z,2.23
2024-03-24T02:42:26.948Z,2.21
2024-03-24T02:43:26.868Z,2.20
2024-03-24T02:44:26.856Z,2.20
2024-03-24T02:45:26.821Z,2.20
2024-03-24T02:46:26.806Z,2.18
2024-03-24T02:47:26.858Z,2.16
2024-03-24T02:48:26.791Z,2.18
2024-03-24T02:49:26.779Z,2.21
2024-03-24T02:50:26.778Z,2.18
2024-03-24T02:51:26.756Z,2.18
2024-03-24T02:52:26.731Z,2.17
2024-03-24T02:53:26.729Z,2.18
2024-03-24T02:54:26.723Z,2.18
2024-03-24T02:55:26.720Z,2.16
2024-03-24T02:56:26.727Z,2.16
2024-03-24T02:57:26.738Z,2.16
2024-03-24T02:58:26.650Z,2.16
2024-03-24T02:59:26.660Z,2.14
2024-03-24T03:00:26.643Z,2.14
2024-03-24T03:01:26.606Z,2.16
2024-03-24T03:02:26.636Z,2.14
2024-03-24T03:03:26.607Z,2.12
2024-03-24T03:04:26.584Z,2.12
2024-03-24T03:05:26.565Z,2.16
2024-03-24T03:06:26.560Z,2.14
2024-03-24T03:07:26.568Z,2.16
2024-03-24T03:08:26.542Z,2.16
2024-03-24T03:09:26.514Z,2.14
2024-03-24T03:10:26.513Z,2.16
2024-03-24T03:11:26.495Z,2.17
2024-03-24T03:12:26.491Z,2.17
2024-03-24T03:13:26.502Z,2.16
2024-03-24T03:14:26.442Z,2.17
2024-03-24T03:15:26.460Z,2.17
2024-03-24T03:16:26.412Z,2.17
2024-03-24T03:17:26.452Z,2.16
2024-03-24T03:18:26.415Z,2.18
2024-03-24T03:19:26.371Z,2.18
2024-03-24T03:20:26.392Z,2.21
2024-03-24T03:21:26.364Z,2.21
2024-03-24T03:22:26.373Z,2.23
2024-03-24T03:23:26.334Z,2.21
2024-03-24T03:24:26.342Z,2.23
2024-03-24T03:25:26.321Z,2.23
2024-03-24T03:26:26.323Z,2.21
2024-03-24T03:27:26.305Z,2.21
2024-03-24T03:28:26.274Z,2.21
2024-03-24T03:29:26.292Z,2.21
2024-03-24T03:30:26.255Z,2.20
2024-03-24T03:31:26.222Z,2.20
2024-03-24T03:32:26.236Z,2.20
2024-03-24T03:33:26.199Z,2.20
2024-03-24T03:34:26.255Z,2.20
2024-03-24T03:35:26.186Z,2.20
2024-03-24T03:36:26.180Z,2.18
2024-03-24T03:37:26.206Z,2.18
2024-03-24T03:38:26.143Z,2.18
2024-03-24T03:39:26.173Z,2.17
2024-03-24T03:40:26.114Z,2.17
2024-03-24T03:41:26.105Z,2.17
2024-03-24T03:42:26.086Z,2.17
2024-03-24T03:43:26.089Z,2.18
2024-03-24T03:44:26.066Z,2.16
2024-03-24T03:45:26.055Z,2.16
2024-03-24T03:46:26.050Z,2.17
2024-03-24T03:47:26.032Z,2.16
2024-03-24T03:48:26.029Z,2.16
2024-03-24T03:49:26.008Z,2.14
2024-03-24T03:50:32.002Z,2.14
2024-03-24T03:51:25.959Z,2.16
2024-03-24T03:52:25.964Z,2.16
2024-03-24T03:53:26.207Z,2.16
2024-03-24T03:54:25.940Z,2.14
2024-03-24T03:55:25.937Z,2.16
2024-03-24T03:56:25.911Z,2.12
2024-03-24T03:57:25.917Z,2.14
2024-03-24T03:58:25.898Z,2.12
2024-03-24T03:59:25.860Z,2.12
2024-03-24T04:00:25.871Z,2.10
2024-03-24T04:01:25.852Z,2.10
2024-03-24T04:02:25.854Z,2.10
2024-03-24T04:03:25.822Z,2.12
2024-03-24T04:04:25.824Z,2.10
2024-03-24T04:05:25.796Z,2.09
2024-03-24T04:06:25.790Z,2.09
2024-03-24T04:07:25.775Z,2.07
2024-03-24T04:08:25.788Z,2.06
2024-03-24T04:09:25.740Z,2.07
2024-03-24T04:10:25.725Z,2.05
2024-03-24T04:11:25.716Z,2.06
2024-03-24T04:12:25.714Z,2.07
2024-03-24T04:13:25.697Z,2.06
2024-03-24T04:14:25.694Z,2.06
2024-03-24T04:15:25.660Z,2.06
2024-03-24T04:16:25.665Z,2.05
2024-03-24T04:17:25.684Z,2.05
2024-03-24T04:18:25.628Z,2.05
2024-03-24T04:19:25.617Z,2.05
2024-03-24T04:20:25.594Z,2.05
2024-03-24T04:21:25.599Z,2.03
2024-03-24T04:22:25.592Z,2.03
2024-03-24T04:23:25.585Z,2.03
2024-03-24T04:24:25.565Z,2.03
2024-03-24T04:25:25.547Z,2.02
2024-03-24T04:26:25.516Z,2.02
2024-03-24T04:27:25.521Z,2.00
2024-03-24T04:28:25.501Z,2.00
2024-03-24T04:29:25.499Z,2.02
2024-03-24T04:30:25.502Z,2.03
2024-03-24T04:31:25.470Z,2.03
2024-03-24T04:32:25.493Z,2.03
2024-03-24T04:33:25.449Z,2.02
2024-03-24T04:34:25.439Z,2.02
2024-03-24T04:35:25.442Z,2.00
2024-03-24T04:36:25.442Z,1.99
2024-03-24T04:37:25.410Z,1.99
2024-03-24T04:38:25.375Z,1.99
2024-03-24T04:39:25.374Z,2.00
2024-03-24T04:40:25.366Z,1.99
2024-03-24T04:41:25.325Z,1.98
2024-03-24T04:42:25.314Z,1.95
2024-03-24T04:43:25.300Z,1.95
2024-03-24T04:44:25.297Z,1.91
2024-03-24T04:45:25.270Z,1.91
2024-03-24T04:46:25.279Z,1.91
2024-03-24T04:47:25.286Z,1.91
2024-03-24T04:48:25.252Z,1.93
2024-03-24T04:49:25.235Z,1.90
2024-03-24T04:50:25.235Z,1.93
2024-03-24T04:51:25.195Z,1.91
2024-03-24T04:52:25.192Z,1.91
2024-03-24T04:53:25.207Z,1.91
2024-03-24T04:54:25.178Z,1.93
2024-03-24T04:55:25.153Z,1.95
2024-03-24T04:56:25.163Z,1.95
2024-03-24T04:57:25.137Z,1.99
2024-03-24T04:58:25.125Z,1.99
2024-03-24T04:59:25.102Z,1.99
2024-03-24T05:00:25.102Z,2.00
2024-03-24T05:01:25.090Z,2.02
2024-03-24T05:02:25.072Z,2.03
2024-03-24T05:03:25.081Z,2.05
2024-03-24T05:04:25.046Z,2.06
2024-03-24T05:05:25.029Z,2.07
2024-03-24T05:06:25.022Z,2.09
2024-03-24T05:07:24.991Z,2.09
2024-03-24T05:08:25.006Z,2.12
2024-03-24T05:09:24.998Z,2.12
2024-03-24T05:10:24.979Z,2.17
2024-03-24T05:11:24.942Z,2.17
2024-03-24T05:12:24.938Z,2.21
2024-03-24T05:13:24.947Z,2.23
2024-03-24T05:14:24.926Z,2.25
2024-03-24T05:15:24.909Z,2.25
2024-03-24T05:16:24.898Z,2.28
2024-03-24T05:17:24.877Z,2.28
2024-03-24T05:18:24.857Z,2.31
2024-03-24T05:19:24.854Z,2.35
2024-03-24T05:20:24.868Z,2.36
2024-03-24T05:21:24.827Z,2.39
2024-03-24T05:22:24.804Z,2.41
2024-03-24T05:23:24.791Z,2.41
2024-03-24T05:24:24.795Z,2.41
2024-03-24T05:25:24.766Z,2.43
2024-03-24T05:26:24.762Z,2.45
2024-03-24T05:27:24.756Z,2.45
2024-03-24T05:28:25.732Z,2.46
2024-03-24T05:29:24.711Z,2.48
2024-03-24T05:30:24.709Z,2.52
2024-03-24T05:31:24.688Z,2.49
2024-03-24T05:32:24.713Z,2.52
2024-03-24T05:33:24.663Z,2.54
2024-03-24T05:34:24.663Z,2.54
2024-03-24T05:35:24.634Z,2.54
2024-03-24T05:36:24.643Z,2.57
2024-03-24T05:37:24.622Z,2.59
2024-03-24T05:38:24.597Z,2.60
2024-03-24T05:39:24.602Z,2.60
2024-03-24T05:40:24.594Z,2.61
2024-03-24T05:41:24.572Z,2.63
2024-03-24T05:42:24.564Z,2.64
2024-03-24T05:43:24.525Z,2.66
2024-03-24T05:44:24.522Z,2.64
2024-03-24T05:45:24.525Z,2.64
2024-03-24T05:46:24.493Z,2.66
2024-03-24T05:47:24.505Z,2.67
2024-03-24T05:48:24.515Z,2.69
2024-03-24T05:49:24.482Z,2.71
2024-03-24T05:50:24.465Z,2.71
2024-03-24T05:51:24.427Z,2.74
2024-03-24T05:52:24.464Z,2.77
2024-03-24T05:53:24.400Z,2.77
2024-03-24T05:54:24.419Z,2.79
2024-03-24T05:55:24.398Z,2.82
2024-03-24T05:56:24.365Z,2.84
2024-03-24T05:57:24.359Z,2.87
2024-03-24T05:58:24.385Z,2.87
2024-03-24T05:59:24.343Z,2.87
2024-03-24T06:00:24.382Z,2.89
2024-03-24T06:01:24.319Z,2.90
2024-03-24T06:02:24.295Z,2.92
2024-03-24T06:03:24.274Z,2.95
2024-03-24T06:04:24.300Z,2.97
2024-03-24T06:05:24.258Z,2.99
2024-03-24T06:06:24.239Z,3.02
2024-03-24T06:07:24.222Z,3.05
2024-03-24T06:08:24.225Z,3.05
2024-03-24T06:09:24.243Z,3.10
2024-03-24T06:10:24.233Z,3.11
2024-03-24T06:11:24.191Z,3.11
2024-03-24T06:12:24.182Z,3.13
2024-03-24T06:13:24.161Z,3.14
2024-03-24T06:14:24.168Z,3.15
2024-03-24T06:15:24.163Z,3.18
2024-03-24T06:16:24.115Z,3.21
2024-03-24T06:17:24.113Z,3.26
2024-03-24T06:18:24.090Z,3.29
2024-03-24T06:19:24.087Z,3.29
2024-03-24T06:20:24.075Z,3.33
2024-03-24T06:21:24.050Z,3.40
2024-03-24T06:22:24.058Z,3.42
2024-03-24T06:23:24.039Z,3.45
2024-03-24T06:24:24.013Z,3.48
2024-03-24T06:25:24.074Z,3.51
2024-03-24T06:26:24.001Z,3.55
2024-03-24T06:27:23.990Z,3.57
2024-03-24T06:28:23.975Z,3.58
2024-03-24T06:29:23.993Z,3.57
2024-03-24T06:30:23.944Z,3.54
2024-03-24T06:31:23.943Z,3.51
2024-03-24T06:32:23.945Z,3.50
2024-03-24T06:33:23.906Z,3.52
2024-03-24T06:34:23.876Z,3.52
2024-03-24T06:35:23.864Z,3.51
2024-03-24T06:36:23.867Z,3.50
2024-03-24T06:37:23.866Z,3.48
2024-03-24T06:38:23.831Z,3.50
2024-03-24T06:39:23.835Z,3.51
2024-03-24T06:40:23.808Z,3.55
2024-03-24T06:41:23.818Z,3.60
2024-03-24T06:42:23.780Z,3.58
2024-03-24T06:43:23.791Z,3.58
2024-03-24T06:44:23.746Z,3.61
2024-03-24T06:45:23.733Z,3.65
2024-03-24T06:46:23.720Z,3.66
2024-03-24T06:47:23.744Z,3.66
2024-03-24T06:48:23.708Z,3.73
2024-03-24T06:49:23.699Z,3.80
2024-03-24T06:50:23.690Z,3.87
2024-03-24T06:51:23.662Z,3.91
2024-03-24T06:52:23.640Z,3.97
2024-03-24T06:53:23.642Z,4.02
2024-03-24T06:54:23.635Z,4.02
2024-03-24T06:55:23.652Z,4.04
2024-03-24T06:56:23.588Z,4.09
2024-03-24T06:57:23.591Z,4.12
2024-03-24T06:58:23.571Z,4.15
2024-03-24T06:59:23.581Z,4.16
2024-03-24T07:00:23.538Z,4.24
2024-03-24T07:01:23.543Z,4.33
2024-03-24T07:02:23.516Z,4.40
2024-03-24T07:03:23.542Z,4.47
2024-03-24T07:04:23.499Z,4.54
2024-03-24T07:05:23.515Z,4.54
2024-03-24T07:06:23.488Z,4.59
2024-03-24T07:07:23.475Z,4.63
2024-03-24T07:08:23.434Z,4.69
2024-03-24T07:09:23.457Z,4.67
2024-03-24T07:10:23.443Z,4.69
2024-03-24T07:11:23.420Z,4.72
2024-03-24T07:12:23.402Z,4.72
2024-03-24T07:13:23.389Z,4.70
2024-03-24T07:14:23.368Z,4.72
2024-03-24T07:15:23.373Z,4.70
2024-03-24T07:16:23.377Z,4.65
2024-03-24T07:17:23.324Z,4.67
2024-03-24T07:18:23.310Z,4.73
2024-03-24T07:19:23.299Z,4.82
2024-03-24T07:20:23.290Z,4.85
2024-03-24T07:21:23.278Z,4.84
2024-03-24T07:22:23.288Z,4.92
2024-03-24T07:23:23.251Z,4.99
2024-03-24T07:24:23.254Z,5.03
2024-03-24T07:25:23.272Z,5.03
2024-03-24T07:26:24.888Z,5.03
2024-03-24T07:27:23.194Z,5.09
2024-03-24T07:28:23.219Z,5.15
2024-03-24T07:29:23.170Z,5.12
2024-03-24T07:30:23.197Z,5.04
2024-03-24T07:31:23.178Z,5.06
2024-03-24T07:32:23.137Z,5.03
2024-03-24T07:33:23.118Z,5.07
2024-03-24T07:34:23.133Z,5.12
2024-03-24T07:35:23.106Z,5.15
2024-03-24T07:36:23.087Z,5.18
2024-03-24T07:37:23.096Z,5.18
2024-03-24T07:38:23.096Z,5.24
2024-03-24T07:39:23.043Z,5.28
2024-03-24T07:40:23.069Z,5.35
2024-03-24T07:41:23.038Z,5.38
2024-03-24T07:42:23.000Z,5.39
2024-03-24T07:43:23.050Z,5.39
2024-03-24T07:44:22.989Z,5.43
2024-03-24T07:45:22.979Z,5.45
2024-03-24T07:46:22.976Z,5.46
2024-03-24T07:47:22.946Z,5.53
2024-03-24T07:48:22.939Z,5.58
2024-03-24T07:49:22.968Z,5.65
2024-03-24T07:50:22.935Z,5.65
2024-03-24T07:51:22.885Z,5.65
2024-03-24T07:52:22.895Z,5.68
2024-03-24T07:53:22.862Z,5.64
2024-03-24T07:54:22.844Z,5.60
2024-03-24T07:55:22.906Z,5.58
2024-03-24T07:56:22.851Z,5.61
2024-03-24T07:57:22.813Z,5.61
2024-03-24T07:58:22.800Z,5.56
2024-03-24T07:59:22.785Z,5.61
2024-03-24T08:00:22.780Z,5.67
2024-03-24T08:01:22.847Z,5.75
2024-03-24T08:02:22.740Z,5.72
2024-03-24T08:03:22.746Z,5.67
2024-03-24T08:04:22.735Z,5.72
2024-03-24T08:05:22.716Z,5.79
2024-03-24T08:06:22.703Z,5.94
2024-03-24T08:07:22.708Z,5.97
2024-03-24T08:08:22.688Z,5.91
2024-03-24T08:09:22.670Z,5.82
2024-03-24T08:10:22.691Z,5.85
2024-03-24T08:11:22.625Z,6.00
2024-03-24T08:12:22.636Z,6.15
2024-03-24T08:13:22.644Z,6.15
2024-03-24T08:14:22.590Z,6.09
2024-03-24T08:15:22.594Z,6.06
2024-03-24T08:16:22.585Z,6.09
2024-03-24T08:17:22.572Z,6.11
2024-03-24T08:18:22.530Z,6.08
2024-03-24T08:19:22.575Z,6.11
2024-03-24T08:20:22.521Z,6.25
2024-03-24T08:21:22.501Z,6.36
2024-03-24T08:22:22.523Z,6.43
2024-03-24T08:23:22.483Z,6.46
2024-03-24T08:24:22.470Z,6.49
2024-03-24T08:25:22.480Z,6.51
2024-03-24T08:26:22.429Z,6.59
2024-03-24T08:27:22.447Z,6.70
2024-03-24T08:28:22.430Z,6.77
2024-03-24T08:29:22.402Z,6.84
2024-03-24T08:30:22.376Z,6.73
2024-03-24T08:31:22.384Z,6.70
2024-03-24T08:32:22.363Z,6.67
2024-03-24T08:33:22.380Z,6.64
2024-03-24T08:34:22.352Z,6.62
2024-03-24T08:35:24.314Z,6.64
2024-03-24T08:36:22.319Z,6.74
2024-03-24T08:37:22.346Z,6.91
2024-03-24T08:38:22.284Z,6.99
2024-03-24T08:39:22.292Z,7.09
2024-03-24T08:40:22.267Z,7.09
2024-03-24T08:41:22.239Z,7.06
2024-03-24T08:42:22.240Z,7.15
2024-03-24T08:43:22.232Z,7.12
2024-03-24T08:44:22.191Z,7.15
2024-03-24T08:45:22.201Z,7.23
2024-03-24T08:46:22.215Z,7.28
2024-03-24T08:47:22.160Z,7.37
2024-03-24T08:48:27.446Z,7.49
2024-03-24T08:49:22.175Z,7.49
2024-03-24T08:50:22.122Z,7.39
2024-03-24T08:51:22.131Z,7.30
2024-03-24T08:52:22.108Z,7.31
2024-03-24T08:53:22.083Z,7.28
2024-03-24T08:54:22.076Z,7.27
2024-03-24T08:55:22.092Z,7.31
2024-03-24T08:56:22.039Z,7.39
2024-03-24T08:57:22.044Z,7.45
2024-03-24T08:58:22.037Z,7.43
2024-03-24T08:59:22.016Z,7.40
2024-03-24T09:00:22.001Z,7.46
2024-03-24T09:01:22.050Z,7.53
2024-03-24T09:02:21.971Z,7.61
2024-03-24T09:03:21.969Z,7.60
2024-03-24T09:04:21.959Z,7.61
2024-03-24T09:05:21.928Z,7.64
2024-03-24T09:06:21.916Z,7.71
2024-03-24T09:07:21.929Z,7.77
2024-03-24T09:08:21.904Z,7.85
2024-03-24T09:09:23.596Z,7.85
2024-03-24T09:10:21.879Z,7.89
2024-03-24T09:11:21.855Z,7.86
2024-03-24T09:12:21.838Z,7.86
2024-03-24T09:13:21.823Z,7.85
2024-03-24T09:14:21.815Z,7.87
2024-03-24T09:15:21.810Z,7.98
2024-03-24T09:16:21.824Z,8.02
2024-03-24T09:17:21.785Z,8.04
2024-03-24T09:18:21.819Z,8.02
2024-03-24T09:19:21.758Z,8.01
2024-03-24T09:20:21.728Z,8.07
2024-03-24T09:21:21.744Z,8.15
2024-03-24T09:22:21.715Z,8.10
2024-03-24T09:23:21.720Z,8.04
2024-03-24T09:24:21.692Z,7.97
2024-03-24T09:25:21.687Z,8.01
2024-03-24T09:26:21.675Z,8.16
2024-03-24T09:27:21.659Z,8.19
2024-03-24T09:28:21.649Z,8.20
2024-03-24T09:29:21.629Z,8.30
2024-03-24T09:30:21.627Z,8.43
2024-03-24T09:31:21.599Z,8.47
2024-03-24T09:32:21.646Z,8.44
2024-03-24T09:33:21.610Z,8.52
2024-03-24T09:34:21.587Z,8.63
2024-03-24T09:35:21.555Z,8.65
2024-03-24T09:36:21.577Z,8.74
2024-03-24T09:37:21.596Z,8.63
2024-03-24T09:38:21.562Z,8.53
2024-03-24T09:39:21.515Z,8.55
2024-03-24T09:40:21.546Z,8.56
2024-03-24T09:41:21.476Z,8.55
2024-03-24T09:42:21.479Z,8.43
2024-03-24T09:43:21.466Z,8.37
2024-03-24T09:44:21.459Z,8.36
2024-03-24T09:45:21.445Z,8.25
2024-03-24T09:46:21.430Z,8.16
2024-03-24T09:47:21.442Z,8.05
2024-03-24T09:48:21.366Z,7.90
2024-03-24T09:49:21.377Z,7.89
2024-03-24T09:50:21.347Z,7.79
2024-03-24T09:51:21.350Z,7.74
2024-03-24T09:52:21.350Z,7.75
2024-03-24T09:53:21.337Z,7.74
2024-03-24T09:54:21.289Z,7.74
2024-03-24T09:55:21.304Z,7.68
2024-03-24T09:56:21.257Z,7.67
2024-03-24T09:57:21.268Z,7.61
2024-03-24T09:58:21.275Z,7.58
2024-03-24T09:59:21.253Z,7.57
2024-03-24T10:00:21.225Z,7.57
2024-03-24T10:01:21.281Z,7.52
2024-03-24T10:02:21.179Z,7.49
2024-03-24T10:03:21.204Z,7.45
2024-03-24T10:04:21.157Z,7.31
2024-03-24T10:05:21.166Z,7.17
2024-03-24T10:06:21.130Z,7.12
2024-03-24T10:07:21.136Z,7.06
2024-03-24T10:08:21.109Z,6.97
2024-03-24T10:09:21.110Z,6.94
2024-03-24T10:10:21.097Z,6.89
2024-03-24T10:11:21.106Z,6.98
2024-03-24T10:12:21.050Z,6.98
2024-03-24T10:13:21.057Z,6.94
2024-03-24T10:14:21.091Z,6.92
2024-03-24T10:15:21.050Z,6.87
2024-03-24T10:16:21.000Z,6.85
2024-03-24T10:17:22.906Z,6.88
2024-03-24T10:18:20.972Z,6.87
2024-03-24T10:19:20.985Z,6.91
2024-03-24T10:20:20.960Z,6.91
2024-03-24T10:21:20.951Z,6.94
2024-03-24T10:22:20.937Z,6.97
2024-03-24T10:23:20.914Z,6.95
2024-03-24T10:24:23.465Z,6.97
2024-03-24T10:25:20.892Z,6.98
2024-03-24T10:26:20.892Z,6.95
2024-03-24T10:27:20.887Z,6.92
2024-03-24T10:28:20.860Z,6.94
2024-03-24T10:29:20.848Z,6.97
2024-03-24T10:30:20.830Z,6.99
2024-03-24T10:31:20.802Z,6.98
2024-03-24T10:32:27.759Z,7.02
2024-03-24T10:33:20.807Z,7.02
2024-03-24T10:34:20.778Z,7.05
2024-03-24T10:35:20.779Z,7.02
2024-03-24T10:36:20.736Z,6.98
2024-03-24T10:37:20.744Z,6.92
2024-03-24T10:38:20.726Z,6.87
2024-03-24T10:39:20.726Z,6.85
2024-03-24T10:40:20.713Z,6.84
2024-03-24T10:41:20.691Z,6.81
2024-03-24T10:42:20.687Z,6.74
2024-03-24T10:43:20.654Z,6.62
2024-03-24T10:44:20.670Z,6.54
2024-03-24T10:45:20.633Z,6.44
2024-03-24T10:46:23.350Z,6.34
2024-03-24T10:47:20.602Z,6.27
2024-03-24T10:48:20.587Z,6.19
2024-03-24T10:49:20.601Z,6.17
2024-03-24T10:50:20.561Z,6.09
2024-03-24T10:51:20.538Z,6.04
2024-03-24T10:52:20.574Z,6.06
2024-03-24T10:53:20.516Z,6.01
2024-03-24T10:54:20.524Z,5.93
2024-03-24T10:55:22.955Z,5.83
2024-03-24T10:56:20.483Z,5.79
2024-03-24T10:57:20.505Z,5.71
2024-03-24T10:58:20.480Z,5.67
2024-03-24T10:59:20.461Z,5.65
2024-03-24T11:00:20.428Z,5.65
2024-03-24T11:01:20.421Z,5.64
2024-03-24T11:02:20.425Z,5.53
2024-03-24T11:03:20.418Z,5.48
2024-03-24T11:04:20.402Z,5.46
2024-03-24T11:05:21.436Z,5.45
2024-03-24T11:06:20.349Z,5.46
2024-03-24T11:07:20.333Z,5.46
2024-03-24T11:08:20.328Z,5.48
2024-03-24T11:09:20.353Z,5.49
2024-03-24T11:10:20.299Z,5.49
2024-03-24T11:11:20.302Z,5.49
2024-03-24T11:12:21.413Z,5.57
2024-03-24T11:13:20.293Z,5.63
2024-03-24T11:14:20.276Z,5.63
2024-03-24T11:15:20.245Z,5.65
2024-03-24T11:16:20.240Z,5.63
2024-03-24T11:17:20.229Z,5.65
2024-03-24T11:18:20.224Z,5.65
2024-03-24T11:19:20.216Z,5.71
2024-03-24T11:20:20.212Z,5.72
2024-03-24T11:21:20.170Z,5.76
2024-03-24T11:22:20.168Z,5.74
2024-03-24T11:23:20.149Z,5.72
2024-03-24T11:24:20.143Z,5.75
2024-03-24T11:25:20.106Z,5.67
2024-03-24T11:26:20.108Z,5.64
2024-03-24T11:27:20.101Z,5.65
2024-03-24T11:28:20.099Z,5.67
2024-03-24T11:29:20.056Z,5.65
2024-03-24T11:30:20.071Z,5.71
2024-03-24T11:31:20.031Z,5.74
2024-03-24T11:32:20.035Z,5.78
2024-03-24T11:33:20.032Z,5.81
2024-03-24T11:34:20.021Z,5.79
2024-03-24T11:35:20.003Z,5.83
2024-03-24T11:36:20.004Z,5.82
2024-03-24T11:37:19.949Z,5.79
2024-03-24T11:38:19.968Z,5.89
2024-03-24T11:39:19.924Z,5.85
2024-03-24T11:40:19.927Z,5.85
2024-03-24T11:41:19.890Z,5.82
2024-03-24T11:42:19.919Z,5.82
2024-03-24T11:43:19.898Z,5.83
2024-03-24T11:44:19.876Z,5.85
2024-03-24T11:45:19.859Z,5.89
2024-03-24T11:46:19.837Z,5.90
2024-03-24T11:47:19.843Z,5.99
2024-03-24T11:48:19.822Z,6.11
2024-03-24T11:49:19.802Z,6.19
2024-03-24T11:50:19.804Z,6.30
2024-03-24T11:51:19.815Z,6.30
2024-03-24T11:52:19.772Z,6.31
2024-03-24T11:53:19.760Z,6.28
2024-03-24T11:54:19.735Z,6.34
2024-03-24T11:55:19.727Z,6.41
2024-03-24T11:56:19.728Z,6.41
2024-03-24T11:57:19.702Z,6.40
2024-03-24T11:58:19.709Z,6.34
2024-03-24T11:59:19.669Z,6.27
2024-03-24T12:00:19.681Z,6.22
2024-03-24T12:01:19.652Z,6.21
2024-03-24T12:02:19.648Z,6.22
2024-03-24T12:03:19.645Z,6.19
2024-03-24T12:04:19.635Z,6.19
2024-03-24T12:05:19.588Z,6.18
2024-03-24T12:06:19.591Z,6.21
2024-03-24T12:07:19.564Z,6.25
2024-03-24T12:08:19.578Z,6.27
2024-03-24T12:09:19.553Z,6.22
2024-03-24T12:10:19.549Z,6.17
2024-03-24T12:11:19.544Z,6.12
2024-03-24T12:12:19.538Z,6.08
2024-03-24T12:13:19.486Z,6.06
2024-03-24T12:14:19.472Z,6.00
2024-03-24T12:15:19.454Z,6.04
2024-03-24T12:16:19.481Z,6.09
2024-03-24T12:17:19.445Z,6.11
2024-03-24T12:18:19.429Z,6.04
2024-03-24T12:19:19.403Z,6.03
2024-03-24T12:20:19.396Z,6.06
2024-03-24T12:21:19.393Z,6.04
2024-03-24T12:22:19.368Z,6.01
2024-03-24T12:23:19.378Z,5.99
2024-03-24T12:24:19.343Z,6.00
2024-03-24T12:25:19.341Z,6.01
2024-03-24T12:26:19.359Z,5.97
2024-03-24T12:27:19.318Z,5.99
2024-03-24T12:28:19.301Z,5.99
2024-03-24T12:29:19.317Z,6.04
2024-03-24T12:30:19.266Z,6.09
2024-03-24T12:31:19.253Z,6.18
2024-03-24T12:32:19.242Z,6.27
2024-03-24T12:33:19.230Z,6.27
2024-03-24T12:34:19.227Z,6.30
2024-03-24T12:35:19.214Z,6.28
2024-03-24T12:36:19.191Z,6.28
2024-03-24T12:37:19.190Z,6.30
2024-03-24T12:38:19.166Z,6.19
2024-03-24T12:39:19.228Z,6.17
2024-03-24T12:40:19.152Z,6.17
2024-03-24T12:41:19.132Z,6.14
2024-03-24T12:42:19.118Z,6.15
2024-03-24T12:43:19.106Z,6.15
2024-03-24T12:44:19.105Z,6.09
2024-03-24T12:45:19.065Z,6.11
2024-03-24T12:46:19.059Z,6.14
2024-03-24T12:47:19.044Z,6.17
2024-03-24T12:48:19.045Z,6.19
2024-03-24T12:49:19.016Z,6.21
2024-03-24T12:50:31.527Z,6.27
2024-03-24T12:51:19.011Z,6.27
2024-03-24T12:52:18.994Z,6.33
2024-03-24T12:53:18.966Z,6.37
2024-03-24T12:54:18.958Z,6.44
2024-03-24T12:55:18.946Z,6.51
2024-03-24T12:56:18.943Z,6.55
2024-03-24T12:57:18.927Z,6.62
2024-03-24T12:58:18.922Z,6.66
2024-03-24T12:59:18.886Z,6.67
2024-03-24T13:00:18.917Z,6.71
2024-03-24T13:01:18.877Z,6.74
2024-03-24T13:02:18.911Z,6.76
2024-03-24T13:03:18.833Z,6.79
2024-03-24T13:04:18.829Z,6.81
2024-03-24T13:05:18.822Z,6.87
2024-03-24T13:06:18.807Z,6.88
2024-03-24T13:07:18.806Z,6.92
2024-03-24T13:08:18.805Z,6.95
2024-03-24T13:09:18.757Z,6.95
2024-03-24T13:10:18.749Z,6.99
2024-03-24T13:11:22.945Z,6.95
2024-03-24T13:12:18.751Z,6.95
2024-03-24T13:13:18.703Z,6.92
2024-03-24T13:14:18.717Z,6.92
2024-03-24T13:15:18.707Z,6.94
2024-03-24T13:16:18.685Z,6.91
2024-03-24T13:17:18.659Z,6.92
2024-03-24T13:18:18.663Z,6.91